»·PEaware :: SKY357 KORS-KEAT

SKY357 :: KORS-KEAT

FLIGHT INFORMATION

Flight Status: Arrived
Operator:
Sky High Charters
More flights by this operator :: More flights under this callsign
Pilot: Eric M. (23425)
Aircraft: BEECH AIRCRAFT BARON
(BE58)
More flights by this aircraft type
Origin: KORS Orcas I
United States
Destination: KEAT Pangborn Meml
United States
More flights between these airports :: More routes between these airports
Route: +FEGBA2 FEGBA SEA V2 ELN V25 EAT
File this flight plan on PilotEdge
Remarks: SCENARIO 3
Altitude:
(Current/Filed)
5,000ft
Speed:
(Current/Filed)
160kts
Departed: 12-Oct-19 01:32 PM
Arrived: 12-Oct-19 02:44 PM
Distance/Time
Traveled:
134nm/1:12
Distance/Time
To Go:
Arrived

Flight Plot

Page will automatically refresh every two minutes.

Flight plan parsing failed; only flown route is shown


Map Options




Map Legend


Flown Route
Filed Route
Departure Airport
Arrival Airport
Navaid (VOR, NDB)
Fix

Horizontal Profiles

Position Reports

Time Latitude Longitude Heading Altitude Ground
Speed
12-Oct-19 13:17 48.705959 -122.909557 180 28ft 0kts
12-Oct-19 13:17 48.705959 -122.909557 180 28ft 0kts
12-Oct-19 13:18 48.705959 -122.909557 180 28ft 0kts
12-Oct-19 13:19 48.705959 -122.909557 180 28ft 0kts
12-Oct-19 13:20 48.705959 -122.909557 180 28ft 0kts
12-Oct-19 13:21 48.705959 -122.909557 180 28ft 0kts
12-Oct-19 13:22 48.705959 -122.909557 180 28ft 0kts
12-Oct-19 13:23 48.705959 -122.909557 180 28ft 0kts
12-Oct-19 13:24 48.705959 -122.909557 180 28ft 0kts
12-Oct-19 13:25 48.705959 -122.909557 180 28ft 0kts
12-Oct-19 13:26 48.705594 -122.909810 245 28ft 10kts
12-Oct-19 13:27 48.710220 -122.909999 359 28ft 19kts
12-Oct-19 13:28 48.711869 -122.909974 355 28ft 0kts
12-Oct-19 13:29 48.711916 -122.909979 356 28ft 0kts
12-Oct-19 13:30 48.712147 -122.910526 216 28ft 6kts
12-Oct-19 13:31 48.685847 -122.910109 175 1223ft 114kts
12-Oct-19 13:32 48.648868 -122.909502 181 2282ft 163kts
12-Oct-19 13:33 48.601763 -122.910386 181 3069ft 170kts
12-Oct-19 13:34 48.554441 -122.911286 181 3821ft 171kts
12-Oct-19 13:35 48.508172 -122.899639 160 4521ft 172kts
12-Oct-19 13:36 48.462716 -122.874143 160 5013ft 185kts
12-Oct-19 13:37 48.412576 -122.846035 161 5017ft 195kts
12-Oct-19 13:38 48.361582 -122.817506 161 5024ft 194kts
12-Oct-19 13:39 48.311169 -122.789359 161 5031ft 193kts
12-Oct-19 13:40 48.260623 -122.761198 161 5031ft 193kts
12-Oct-19 13:41 48.210205 -122.733173 161 5031ft 193kts
12-Oct-19 13:42 48.159701 -122.705156 161 5031ft 193kts
12-Oct-19 13:43 48.109243 -122.677218 161 5032ft 193kts
12-Oct-19 13:44 48.058882 -122.649394 161 5032ft 193kts
12-Oct-19 13:45 48.009939 -122.622357 161 5455ft 181kts
12-Oct-19 13:46 47.963085 -122.596608 161 5900ft 179kts
12-Oct-19 13:47 47.916175 -122.570846 161 6321ft 179kts
12-Oct-19 13:48 47.869587 -122.545296 160 6768ft 177kts
12-Oct-19 13:49 47.823560 -122.520099 161 7247ft 175kts
12-Oct-19 13:50 47.777754 -122.495073 161 7697ft 175kts
12-Oct-19 13:51 47.732160 -122.470220 161 8126ft 175kts
12-Oct-19 13:52 47.686741 -122.445509 162 8538ft 174kts
12-Oct-19 13:53 47.641288 -122.420835 162 8924ft 174kts
12-Oct-19 13:54 47.593934 -122.395210 162 8913ft 184kts
12-Oct-19 13:55 47.545195 -122.368840 162 8913ft 187kts
12-Oct-19 13:56 47.498553 -122.343660 163 8911ft 188kts
12-Oct-19 13:57 47.453665 -122.319468 163 8911ft 188kts
12-Oct-19 13:58 47.423792 -122.251715 110 8911ft 193kts
12-Oct-19 13:59 47.406989 -122.176073 108 8911ft 194kts
12-Oct-19 14:00 47.390652 -122.100028 108 8911ft 194kts
12-Oct-19 14:01 47.374253 -122.023726 108 8911ft 194kts
12-Oct-19 14:02 47.357884 -121.947830 108 8911ft 194kts
12-Oct-19 14:03 47.341381 -121.871599 108 8910ft 194kts
12-Oct-19 14:04 47.324773 -121.795150 108 8909ft 194kts
12-Oct-19 14:05 47.308210 -121.719194 108 8910ft 194kts
12-Oct-19 14:06 47.291605 -121.643323 108 8912ft 194kts
12-Oct-19 14:07 47.274969 -121.567590 108 8912ft 194kts
12-Oct-19 14:08 47.258153 -121.491312 108 8912ft 194kts
12-Oct-19 14:09 47.241333 -121.415299 108 8915ft 194kts
12-Oct-19 14:10 47.224991 -121.341708 109 8946ft 193kts
12-Oct-19 14:11 47.207537 -121.263419 108 8946ft 199kts
12-Oct-19 14:12 47.190140 -121.185640 108 8965ft 200kts
12-Oct-19 14:13 47.172645 -121.107649 108 8966ft 201kts
12-Oct-19 14:14 47.162515 -121.029394 66 8971ft 197kts
12-Oct-19 14:15 47.184680 -120.955008 63 8966ft 198kts
12-Oct-19 14:16 47.206711 -120.880005 64 8967ft 198kts
12-Oct-19 14:17 47.228425 -120.805643 64 8967ft 198kts
12-Oct-19 14:18 47.250168 -120.730923 64 8967ft 198kts
12-Oct-19 14:19 47.271855 -120.656177 64 8968ft 198kts
12-Oct-19 14:20 47.293510 -120.581308 64 8970ft 198kts
12-Oct-19 14:21 47.315068 -120.506544 64 8973ft 198kts
12-Oct-19 14:22 47.336655 -120.431449 64 8976ft 199kts
12-Oct-19 14:23 47.358183 -120.356327 64 8977ft 199kts
12-Oct-19 14:24 47.379693 -120.281035 64 8974ft 199kts
12-Oct-19 14:25 47.399104 -120.206247 82 8879ft 193kts
12-Oct-19 14:26 47.400000 -120.125112 88 8359ft 198kts
12-Oct-19 14:27 47.400235 -120.044710 88 7731ft 191kts
12-Oct-19 14:28 47.400142 -119.968054 92 7035ft 178kts
12-Oct-19 14:29 47.382348 -119.899530 127 6107ft 177kts
12-Oct-19 14:30 47.344391 -119.857514 159 5303ft 156kts
12-Oct-19 14:31 47.305677 -119.849073 186 4922ft 129kts
12-Oct-19 14:32 47.272527 -119.862618 209 4936ft 122kts
12-Oct-19 14:33 47.245403 -119.896683 237 4396ft 131kts
12-Oct-19 14:34 47.233057 -119.945365 266 4028ft 120kts
12-Oct-19 14:35 47.237186 -119.992419 292 3907ft 110kts
12-Oct-19 14:36 47.253408 -120.029384 315 3910ft 107kts
12-Oct-19 14:37 47.278167 -120.053536 332 3911ft 106kts
12-Oct-19 14:38 47.307303 -120.075686 332 3558ft 121kts
12-Oct-19 14:39 47.337273 -120.098560 332 3188ft 119kts
12-Oct-19 14:40 47.362528 -120.125944 294 2686ft 121kts
12-Oct-19 14:41 47.372649 -120.169465 316 1856ft 102kts
12-Oct-19 14:42 47.392538 -120.197847 314 1279ft 95kts
12-Oct-19 14:43 47.400543 -120.209296 21 1253ft 14kts
12-Oct-19 14:44 47.400884 -120.208366 65 1253ft 0kts

Navigation Log

Ident Type
Flight plan parsing failed, navigation log unavailable